LICR/REG METAR and TAF weather

Enter ICAO airport designator
Station Type Date Time Source
LICR METAR 2019/02/20 22:50 UTC NOAA

LICR 202250Z 06006KT CAVOK 09/04 Q1025


Station Type Date Time Source
LICR Decoded METAR 2019/02/20 22:50 UTC NOAA

Reggio Calabria, Italy (LICR) 38-04N 015-39E 21M
Feb 20, 2019 - 05:50 PM EST / 2019.02.20 2250 UTC
Wind: from the ENE (060 degrees) at 7 MPH (6 KT):0
Visibility: greater than 7 mile(s):0
Temperature: 48 F (9 C)
Dew Point: 39 F (4 C)
Relative Humidity: 70%
Pressure (altimeter): 30.27 in. Hg (1025 hPa)
ob: LICR 202250Z 06006KT CAVOK 09/04 Q1025
cycle: 23

Station Type Date Time Source
LICR TAF 2019/02/20 18:21 UTC NOAA

TAF LICR 201700Z 2018/2118 36012KT CAVOK


Example: see airport list